Time;durP1;ratioP1;P1;durP2;ratioP2;P2;SDS_P1;SDS_P2;PMS_P1;PMS_P2;Temp;Humidity;BMP_temperature;BMP_pressure;BME280_temperature;BME280_humidity;BME280_pressure;Samples;Min_cycle;Max_cycle;Signal;HPM_P1;HPM_P2
2024/01/04 04:01:50;;;;;;;6.68;0.77;;;6.00;99.90;;;;;;5284438;23;20048;-75
2024/01/04 04:04:16;;;;;;;1.42;0.50;;;6.00;99.90;;;;;;4934863;29;20392;-75
2024/01/04 04:06:42;;;;;;;2.50;0.80;;;6.00;99.90;;;;;;4936273;29;20042;-73
2024/01/04 04:09:08;;;;;;;7.05;0.93;;;6.00;99.90;;;;;;4936542;29;20043;-74
2024/01/04 04:11:34;;;;;;;4.10;0.95;;;5.90;99.90;;;;;;4936159;29;20200;-75
2024/01/04 04:14:00;;;;;;;4.32;0.50;;;6.00;99.90;;;;;;4934983;29;20051;-74
2024/01/04 04:16:25;;;;;;;2.25;0.65;;;6.00;99.90;;;;;;4936124;29;20399;-75
2024/01/04 04:18:51;;;;;;;2.03;0.60;;;5.90;99.90;;;;;;4936115;29;20036;-75
2024/01/04 04:21:24;;;;;;;4.60;0.77;;;5.90;99.90;;;;;;4920323;29;20459;-76
2024/01/04 04:23:50;;;;;;;3.40;0.80;;;5.90;99.90;;;;;;4938694;29;20043;-75
2024/01/04 04:26:17;;;;;;;1.58;0.50;;;5.90;99.90;;;;;;4939035;29;20051;-75
2024/01/04 04:28:43;;;;;;;2.13;0.77;;;5.90;99.90;;;;;;4940190;29;20461;-77
2024/01/04 04:31:13;;;;;;;2.42;0.73;;;5.90;99.90;;;;;;4939974;29;20086;-73
2024/01/04 04:33:39;;;;;;;3.35;0.50;;;5.80;99.90;;;;;;4938383;29;20123;-76
2024/01/04 04:36:05;;;;;;;3.70;0.70;;;5.80;99.90;;;;;;4939784;29;20043;-74
2024/01/04 04:38:32;;;;;;;6.13;0.63;;;5.80;99.90;;;;;;4939739;29;20560;-73
2024/01/04 04:40:57;;;;;;;2.50;0.60;;;5.80;99.90;;;;;;4938340;29;20043;-75
2024/01/04 04:43:23;;;;;;;2.25;0.55;;;5.80;99.90;;;;;;4938369;29;20419;-76
2024/01/04 04:45:49;;;;;;;4.13;0.63;;;5.70;99.90;;;;;;4922541;29;20108;-74
2024/01/04 04:48:14;;;;;;;9.55;1.67;;;5.70;99.90;;;;;;4938303;29;20047;-73
2024/01/04 04:50:40;;;;;;;2.20;0.57;;;5.70;99.90;;;;;;4938268;29;20407;-76
2024/01/04 04:53:05;;;;;;;2.05;0.50;;;5.70;99.90;;;;;;4922454;29;20086;-76
2024/01/04 04:55:32;;;;;;;2.20;0.77;;;5.70;99.90;;;;;;4938541;29;20086;-72
2024/01/04 04:57:58;;;;;;;4.20;0.70;;;5.70;99.90;;;;;;4938410;29;20108;-74
2024/01/04 05:00:24;;;;;;;1.92;0.95;;;5.60;99.90;;;;;;4939089;29;20040;-74
2024/01/04 05:02:49;;;;;;;6.20;1.02;;;5.60;99.90;;;;;;4938239;29;20058;-75
2024/01/04 05:05:15;;;;;;;4.93;0.75;;;5.70;99.90;;;;;;4939533;29;20036;-75
2024/01/04 05:07:41;;;;;;;5.50;0.70;;;5.60;99.90;;;;;;4939269;29;20475;-75
2024/01/04 05:10:07;;;;;;;3.28;0.40;;;5.60;99.90;;;;;;4939164;29;20079;-75
2024/01/04 05:12:33;;;;;;;2.88;0.82;;;5.60;99.90;;;;;;4937723;29;20530;-75
2024/01/04 05:14:59;;;;;;;2.80;0.85;;;5.60;99.90;;;;;;4937812;29;20043;-74
2024/01/04 05:17:25;;;;;;;2.15;0.57;;;5.60;99.90;;;;;;4939222;29;20040;-74
2024/01/04 05:19:50;;;;;;;5.38;0.90;;;5.60;99.90;;;;;;4937895;29;20420;-73
2024/01/04 05:22:16;;;;;;;7.53;1.02;;;5.60;99.90;;;;;;4938883;29;20036;-74
2024/01/04 05:24:42;;;;;;;3.22;0.73;;;5.50;99.90;;;;;;4937523;29;20051;-74
2024/01/04 05:27:08;;;;;;;1.50;0.50;;;5.60;99.90;;;;;;4937617;29;20057;-74
2024/01/04 05:29:33;;;;;;;5.65;0.85;;;5.60;99.90;;;;;;4937657;29;20063;-75
2024/01/04 05:31:59;;;;;;;3.20;0.90;;;5.60;99.90;;;;;;4938304;29;20044;-74
2024/01/04 05:34:25;;;;;;;1.40;0.45;;;5.60;99.90;;;;;;4937084;29;20052;-74
2024/01/04 05:36:51;;;;;;;2.60;0.50;;;5.60;99.90;;;;;;4937407;29;20114;-74
2024/01/04 05:39:17;;;;;;;3.38;0.82;;;5.60;99.90;;;;;;4921615;29;20124;-76
2024/01/04 05:41:42;;;;;;;3.45;0.82;;;5.50;99.90;;;;;;4938671;29;20039;-75
2024/01/04 05:44:08;;;;;;;3.42;0.57;;;5.50;99.90;;;;;;4938466;29;20504;-73
2024/01/04 05:46:34;;;;;;;3.97;0.82;;;5.50;99.90;;;;;;4937179;29;20055;-74
2024/01/04 05:49:00;;;;;;;3.58;0.90;;;5.60;99.90;;;;;;4937297;29;20051;-74
2024/01/04 05:51:26;;;;;;;3.47;0.70;;;5.60;99.90;;;;;;4937095;29;20103;-75
2024/01/04 05:53:51;;;;;;;3.70;0.90;;;5.60;99.90;;;;;;4938541;29;20091;-74
2024/01/04 05:56:17;;;;;;;3.00;0.93;;;5.50;99.90;;;;;;4937078;29;20046;-73
2024/01/04 05:58:43;;;;;;;5.75;0.88;;;5.50;99.90;;;;;;4938527;29;20103;-75
2024/01/04 06:01:09;;;;;;;2.65;0.73;;;5.50;99.90;;;;;;4936649;29;20141;-75
2024/01/04 06:03:34;;;;;;;7.40;1.25;;;5.50;99.90;;;;;;4938565;29;20048;-75
2024/01/04 06:06:00;;;;;;;4.10;0.68;;;5.50;99.90;;;;;;4936984;29;20044;-73
2024/01/04 06:08:26;;;;;;;4.88;1.35;;;5.50;99.90;;;;;;4936997;29;20130;-74
2024/01/04 06:10:52;;;;;;;3.13;0.50;;;5.50;99.90;;;;;;4936744;29;20083;-75
2024/01/04 06:13:18;;;;;;;2.08;0.70;;;5.50;99.90;;;;;;4937109;29;20373;-76
2024/01/04 06:15:45;;;;;;;2.85;0.60;;;5.40;99.90;;;;;;4936995;29;20040;-73
2024/01/04 06:18:12;;;;;;;2.83;0.60;;;5.40;99.90;;;;;;4938070;29;20055;-73
2024/01/04 06:20:38;;;;;;;5.03;1.45;;;5.40;99.90;;;;;;4938042;29;20072;-74
2024/01/04 06:23:04;;;;;;;5.25;0.82;;;5.40;99.90;;;;;;4936579;29;20087;-74
2024/01/04 06:25:30;;;;;;;6.78;0.95;;;5.40;99.90;;;;;;4938427;29;20078;-75
2024/01/04 06:27:56;;;;;;;2.55;0.50;;;5.40;99.90;;;;;;4920789;29;20039;-74
2024/01/04 06:30:22;;;;;;;4.40;0.73;;;5.40;99.90;;;;;;4936436;29;20564;-75
2024/01/04 06:32:48;;;;;;;3.25;0.95;;;5.30;99.90;;;;;;4936467;29;20122;-74
2024/01/04 06:35:13;;;;;;;4.53;0.95;;;5.30;99.90;;;;;;4936284;29;20050;-74
2024/01/04 06:37:39;;;;;;;4.05;0.77;;;5.30;99.90;;;;;;4937567;29;20423;-74
2024/01/04 06:40:08;;;;;;;2.15;0.60;;;5.30;99.90;;;;;;4936284;29;20074;-74
2024/01/04 06:42:36;;;;;;;6.70;1.00;;;5.30;99.90;;;;;;4936401;29;20396;-73
2024/01/04 06:45:05;;;;;;;4.88;0.63;;;5.30;99.90;;;;;;4935073;29;20054;-75
2024/01/04 06:47:31;;;;;;;3.63;0.88;;;5.30;99.90;;;;;;4936023;29;20507;-78
2024/01/04 06:49:57;;;;;;;4.72;1.00;;;5.30;99.90;;;;;;4920678;29;20043;-74
2024/01/04 06:52:22;;;;;;;4.38;0.73;;;5.30;99.90;;;;;;4937258;29;20128;-73
2024/01/04 06:54:48;;;;;;;6.85;1.20;;;5.20;99.90;;;;;;4937553;29;20399;-72
2024/01/04 06:57:14;;;;;;;2.78;0.70;;;5.20;99.90;;;;;;4937245;29;20480;-75
2024/01/04 06:59:40;;;;;;;2.20;0.68;;;5.30;99.90;;;;;;4936166;29;20044;-73
2024/01/04 07:02:05;;;;;;;6.50;1.30;;;5.20;99.90;;;;;;4937019;29;20483;-75
2024/01/04 07:04:31;;;;;;;7.18;1.30;;;5.20;99.90;;;;;;4937348;29;20039;-73
2024/01/04 07:06:57;;;;;;;3.53;1.42;;;5.20;99.90;;;;;;4937004;29;20035;-74
2024/01/04 07:09:22;;;;;;;6.10;0.95;;;5.20;99.90;;;;;;4936802;29;20048;-73
2024/01/04 07:11:48;;;;;;;4.38;1.00;;;5.20;99.90;;;;;;4936522;29;20036;-73
2024/01/04 07:14:14;;;;;;;4.97;1.10;;;5.10;99.90;;;;;;4936534;29;20454;-74
2024/01/04 07:16:46;;;;;;;3.90;0.90;;;5.20;99.90;;;;;;4936950;29;20079;-75
2024/01/04 07:19:12;;;;;;;5.18;1.23;;;5.10;99.90;;;;;;4935323;29;20095;-74
2024/01/04 07:21:40;;;;;;;7.53;1.33;;;5.10;99.90;;;;;;4935543;29;20051;-75
2024/01/04 07:24:06;;;;;;;4.78;1.10;;;5.10;99.90;;;;;;4935344;29;20055;-75
2024/01/04 07:26:31;;;;;;;3.72;1.13;;;5.10;99.90;;;;;;4936735;29;20040;-74
2024/01/04 07:28:57;;;;;;;18.52;1.48;;;5.10;99.90;;;;;;4935092;29;20126;-73
2024/01/04 07:31:22;;;;;;;4.72;1.38;;;5.10;99.90;;;;;;4936575;29;20110;-76
2024/01/04 07:33:48;;;;;;;7.72;1.38;;;5.10;99.90;;;;;;4936264;29;20459;-75
2024/01/04 07:36:14;;;;;;;3.65;1.25;;;5.00;99.90;;;;;;4935266;29;20585;-73
2024/01/04 07:38:40;;;;;;;6.03;1.05;;;5.00;99.90;;;;;;4935162;29;20056;-73
2024/01/04 07:41:06;;;;;;;2.28;0.90;;;5.00;99.90;;;;;;4934827;29;20468;-75
2024/01/04 07:43:31;;;;;;;5.30;1.13;;;5.00;99.90;;;;;;4935107;29;20036;-73
2024/01/04 07:45:57;;;;;;;5.20;1.17;;;5.00;99.90;;;;;;4934852;29;20044;-73
2024/01/04 07:48:24;;;;;;;6.32;1.13;;;5.00;99.90;;;;;;4934675;29;20072;-75
2024/01/04 07:50:50;;;;;;;3.50;0.82;;;5.10;99.90;;;;;;4936274;29;20427;-74
2024/01/04 07:53:15;;;;;;;4.75;1.08;;;5.00;99.90;;;;;;4934892;29;20048;-73
2024/01/04 07:55:41;;;;;;;6.18;1.20;;;5.00;99.90;;;;;;4935433;29;20480;-75
2024/01/04 07:58:07;;;;;;;6.10;1.52;;;5.00;99.90;;;;;;4936550;29;20127;-74
2024/01/04 08:00:32;;;;;;;4.38;1.30;;;5.00;99.90;;;;;;4935836;29;20480;-74
2024/01/04 08:02:58;;;;;;;4.60;1.50;;;5.00;99.90;;;;;;4936086;29;20039;-73
2024/01/04 08:05:24;;;;;;;7.45;1.33;;;5.00;99.90;;;;;;4934398;29;20086;-74
2024/01/04 08:07:49;;;;;;;4.18;0.90;;;5.10;99.90;;;;;;4934708;29;20055;-76
2024/01/04 08:10:15;;;;;;;3.20;1.10;;;5.10;99.90;;;;;;4936308;29;20035;-75
2024/01/04 08:12:41;;;;;;;3.83;1.05;;;5.10;99.90;;;;;;4935690;29;20047;-73
2024/01/04 08:15:08;;;;;;;3.55;1.10;;;5.10;99.90;;;;;;4936254;29;20048;-74
2024/01/04 08:17:35;;;;;;;6.47;1.33;;;5.10;99.90;;;;;;4918905;29;20043;-76
2024/01/04 08:20:02;;;;;;;5.22;1.17;;;5.10;99.90;;;;;;4935632;29;20050;-74
2024/01/04 08:22:27;;;;;;;5.18;1.60;;;5.10;99.90;;;;;;4935864;29;20502;-75
2024/01/04 08:24:53;;;;;;;5.53;1.50;;;5.10;99.90;;;;;;4935978;29;20074;-74
2024/01/04 08:27:19;;;;;;;8.93;2.05;;;5.20;99.90;;;;;;4935605;29;20083;-74
2024/01/04 08:29:49;;;;;;;5.80;1.60;;;5.20;99.90;;;;;;4935614;29;20499;-74
2024/01/04 08:32:16;;;;;;;3.97;1.60;;;5.20;99.90;;;;;;4934494;29;20052;-74
2024/01/04 08:34:42;;;;;;;9.50;1.75;;;5.20;99.90;;;;;;4935706;29;20044;-74
2024/01/04 08:37:08;;;;;;;6.82;2.80;;;5.10;99.90;;;;;;4934418;29;20121;-75
2024/01/04 08:39:33;;;;;;;8.77;3.25;;;5.20;99.90;;;;;;4935574;29;20407;-74
2024/01/04 08:41:59;;;;;;;5.68;1.80;;;5.20;99.90;;;;;;4935716;29;20044;-74
2024/01/04 08:44:25;;;;;;;10.60;1.40;;;5.20;99.90;;;;;;4934322;29;20514;-73
2024/01/04 08:46:52;;;;;;;5.20;1.27;;;5.20;99.90;;;;;;4934144;29;20059;-75
2024/01/04 08:49:18;;;;;;;8.93;2.17;;;5.20;99.90;;;;;;4935768;29;20440;-73
2024/01/04 08:51:44;;;;;;;5.20;1.00;;;5.20;99.90;;;;;;4918571;29;20036;-73
2024/01/04 08:54:10;;;;;;;6.47;1.35;;;5.20;99.90;;;;;;4935018;29;20503;-74
2024/01/04 08:56:36;;;;;;;5.50;2.17;;;5.20;99.90;;;;;;4934104;29;20399;-73
2024/01/04 08:59:02;;;;;;;4.30;1.40;;;5.20;99.90;;;;;;4934281;29;20082;-73
2024/01/04 09:01:28;;;;;;;4.40;1.70;;;5.20;99.90;;;;;;4935213;29;20051;-73
2024/01/04 09:03:55;;;;;;;5.55;1.50;;;5.20;99.90;;;;;;4935672;29;20047;-73
2024/01/04 09:06:22;;;;;;;4.18;1.15;;;5.30;99.90;;;;;;4934420;29;20146;-75
2024/01/04 09:08:48;;;;;;;5.70;1.20;;;5.30;99.90;;;;;;4937695;29;20054;-75
2024/01/04 09:11:17;;;;;;;8.45;1.55;;;5.30;99.90;;;;;;4937574;29;20087;-74
2024/01/04 09:13:47;;;;;;;4.25;1.35;;;5.30;99.90;;;;;;4937347;29;20044;-75
2024/01/04 09:16:12;;;;;;;3.03;1.00;;;5.30;99.90;;;;;;4938777;29;20525;-75
2024/01/04 09:18:38;;;;;;;3.85;1.27;;;5.40;99.90;;;;;;4939023;29;20040;-73
2024/01/04 09:21:04;;;;;;;8.35;1.10;;;5.40;99.90;;;;;;4937655;29;20039;-74
2024/01/04 09:23:30;;;;;;;5.75;1.20;;;5.40;99.90;;;;;;4938778;29;20440;-73
2024/01/04 09:25:56;;;;;;;7.57;1.30;;;5.40;99.90;;;;;;4938976;29;20046;-74
2024/01/04 09:28:24;;;;;;;4.45;0.93;;;5.40;99.90;;;;;;4937445;29;20456;-75
2024/01/04 09:30:50;;;;;;;7.05;1.27;;;5.50;99.90;;;;;;4938824;29;20052;-75
2024/01/04 09:33:16;;;;;;;3.35;1.20;;;5.50;99.90;;;;;;4937382;29;20066;-75
2024/01/04 09:35:41;;;;;;;3.38;0.82;;;5.50;99.90;;;;;;4938821;29;20043;-72
2024/01/04 09:38:07;;;;;;;6.97;1.23;;;5.60;99.90;;;;;;4937806;29;20043;-72
2024/01/04 09:40:33;;;;;;;4.88;0.95;;;5.60;99.90;;;;;;4937663;29;20110;-72
2024/01/04 09:43:00;;;;;;;4.75;1.15;;;5.60;99.90;;;;;;4939162;29;20047;-75
2024/01/04 09:45:28;;;;;;;7.03;1.20;;;5.60;99.90;;;;;;4937102;29;20337;-73
2024/01/04 09:47:56;;;;;;;3.40;0.95;;;5.70;99.90;;;;;;4938213;29;20039;-74
2024/01/04 09:50:23;;;;;;;2.25;0.80;;;5.70;99.90;;;;;;4936963;29;20050;-72
2024/01/04 09:52:55;;;;;;;4.47;0.80;;;5.70;99.90;;;;;;4938475;29;20044;-72
2024/01/04 09:55:22;;;;;;;5.50;0.70;;;5.70;99.90;;;;;;4938555;29;20039;-73
2024/01/04 09:57:48;;;;;;;2.28;0.80;;;5.70;99.90;;;;;;4938110;29;20044;-73
2024/01/04 10:00:14;;;;;;;2.20;0.80;;;5.70;99.90;;;;;;4936579;29;20055;-73
2024/01/04 10:02:44;;;;;;;1.90;0.68;;;5.80;99.90;;;;;;4937984;29;20044;-73
2024/01/04 10:05:18;;;;;;;2.47;0.85;;;5.80;99.90;;;;;;4936859;29;20385;-72
2024/01/04 10:07:52;;;;;;;5.38;1.10;;;5.70;99.90;;;;;;4936858;29;20056;-73
2024/01/04 10:10:20;;;;;;;5.25;0.90;;;5.80;99.90;;;;;;4937900;29;20036;-73
2024/01/04 10:12:48;;;;;;;7.35;1.38;;;5.80;99.90;;;;;;4936598;29;20051;-73
2024/01/04 10:15:15;;;;;;;2.83;0.77;;;5.80;99.90;;;;;;4938091;29;20119;-73
2024/01/04 10:17:44;;;;;;;3.40;0.88;;;5.90;99.90;;;;;;4937976;29;20048;-74
2024/01/04 10:20:10;;;;;;;2.42;1.00;;;5.90;99.90;;;;;;4936347;29;20392;-73
2024/01/04 10:22:36;;;;;;;3.72;0.88;;;5.90;99.90;;;;;;4936594;29;20051;-75
2024/01/04 10:25:09;;;;;;;5.20;0.90;;;5.90;99.90;;;;;;4938151;29;20542;-74
2024/01/04 10:27:35;;;;;;;4.22;1.15;;;6.00;99.90;;;;;;4937408;29;20083;-72
2024/01/04 10:30:05;;;;;;;7.25;1.15;;;6.00;99.90;;;;;;4936578;29;20490;-75
2024/01/04 10:32:32;;;;;;;3.75;1.00;;;6.00;99.90;;;;;;4936122;29;20079;-73
2024/01/04 10:35:06;;;;;;;4.45;0.93;;;6.00;99.90;;;;;;4936211;29;20050;-75
2024/01/04 10:37:33;;;;;;;2.83;1.00;;;6.00;99.90;;;;;;4937690;29;20052;-75
2024/01/04 10:40:03;;;;;;;2.63;0.98;;;6.00;99.90;;;;;;4937656;29;20035;-75
2024/01/04 10:42:30;;;;;;;6.28;1.30;;;6.10;99.90;;;;;;4936003;29;20063;-74
2024/01/04 10:44:56;;;;;;;5.38;1.40;;;6.00;99.90;;;;;;4936339;29;20050;-72
2024/01/04 10:47:23;;;;;;;6.55;1.00;;;6.20;99.90;;;;;;4937428;29;20106;-74
2024/01/04 10:49:56;;;;;;;7.45;0.95;;;6.20;99.90;;;;;;4937140;29;20405;-73
2024/01/04 10:52:26;;;;;;;6.95;1.20;;;6.20;99.90;;;;;;4920005;29;20040;-72
2024/01/04 10:54:53;;;;;;;5.90;1.20;;;6.20;99.90;;;;;;4937268;29;20043;-72
2024/01/04 10:57:19;;;;;;;6.03;1.58;;;6.30;99.90;;;;;;4936929;29;20043;-72
2024/01/04 10:59:48;;;;;;;6.38;0.93;;;6.30;99.90;;;;;;4935775;29;20459;-73
2024/01/04 11:02:15;;;;;;;4.07;1.00;;;6.30;99.90;;;;;;4936774;29;20458;-76
2024/01/04 11:04:42;;;;;;;2.08;0.80;;;6.30;99.90;;;;;;4935568;29;20047;-74
2024/01/04 11:07:08;;;;;;;7.07;1.23;;;6.30;99.90;;;;;;4936797;29;20085;-74
2024/01/04 11:09:34;;;;;;;4.10;0.98;;;6.30;99.90;;;;;;4935805;29;20403;-72
2024/01/04 11:12:02;;;;;;;6.03;1.10;;;6.30;99.90;;;;;;4936959;29;20042;-74
2024/01/04 11:14:28;;;;;;;5.80;1.00;;;6.30;99.90;;;;;;4935435;29;20115;-72
2024/01/04 11:17:08;;;;;;;3.30;0.82;;;6.30;99.90;;;;;;4936975;29;20040;-72
2024/01/04 11:19:49;;;;;;;3.15;0.82;;;6.30;99.90;;;;;;4937099;29;20091;-74
2024/01/04 11:22:54;;;;;;;3.45;0.90;;;6.40;99.90;;;;;;4935934;29;20483;-72
2024/01/04 11:25:37;;;;;;;4.60;1.10;;;6.40;99.90;;;;;;4907115;29;20187;-73
2024/01/04 11:28:06;;;;;;;2.60;0.80;;;6.30;99.90;;;;;;4936939;29;20040;-72
2024/01/04 11:30:32;;;;;;;4.50;1.00;;;6.40;99.90;;;;;;4936192;29;20036;-72
2024/01/04 11:32:59;;;;;;;3.85;0.90;;;6.40;99.90;;;;;;4936874;29;20047;-73
2024/01/04 11:35:25;;;;;;;4.65;0.90;;;6.40;99.90;;;;;;4935093;29;20110;-74
2024/01/04 11:37:51;;;;;;;4.68;0.93;;;6.50;99.90;;;;;;4935315;29;20047;-72
2024/01/04 11:40:26;;;;;;;4.13;0.70;;;6.50;99.90;;;;;;4935314;29;20048;-73
2024/01/04 11:42:52;;;;;;;;;;;6.50;99.90;;;;;;4937253;29;20455;-73
2024/01/04 11:45:18;;;;;;;4.40;0.82;;;6.50;99.90;;;;;;4935301;29;19950;-73
2024/01/04 11:47:46;;;;;;;3.42;0.90;;;6.50;99.90;;;;;;4936651;29;20043;-73
2024/01/04 11:50:16;;;;;;;4.57;0.90;;;6.50;99.90;;;;;;4936582;29;20048;-74
2024/01/04 11:52:43;;;;;;;4.45;0.80;;;6.50;99.90;;;;;;4934768;29;20622;-74
2024/01/04 11:55:09;;;;;;;3.85;1.27;;;6.50;99.90;;;;;;4934887;29;20055;-72
2024/01/04 11:57:37;;;;;;;8.13;1.10;;;6.50;99.90;;;;;;4934663;29;20040;-73
2024/01/04 12:00:15;;;;;;;4.85;0.82;;;6.50;99.90;;;;;;4949703;29;20043;-75
2024/01/04 12:02:41;;;;;;;5.80;1.42;;;6.50;99.90;;;;;;4955206;28;20051;-73
2024/01/04 12:05:07;;;;;;;2.63;0.88;;;6.60;99.90;;;;;;4955421;28;20035;-72
2024/01/04 12:07:35;;;;;;;3.95;0.80;;;6.60;99.90;;;;;;4955173;28;20050;-71
2024/01/04 12:10:00;;;;;;;5.45;1.75;;;6.70;99.90;;;;;;4955188;28;20399;-74
2024/01/04 12:12:26;;;;;;;2.72;0.80;;;6.70;99.90;;;;;;4953956;29;20047;-72
2024/01/04 12:14:52;;;;;;;6.57;1.10;;;6.70;99.90;;;;;;4955031;28;20035;-75
2024/01/04 12:17:18;;;;;;;3.13;0.82;;;6.60;99.90;;;;;;4953763;29;20044;-74
2024/01/04 12:19:44;;;;;;;3.45;1.05;;;6.70;99.90;;;;;;4954114;29;20051;-72
2024/01/04 12:22:10;;;;;;;4.50;1.40;;;6.70;99.90;;;;;;4954402;29;20467;-74
2024/01/04 12:24:38;;;;;;;4.45;0.80;;;6.70;99.90;;;;;;4953771;29;20050;-73
2024/01/04 12:27:05;;;;;;;4.85;1.15;;;6.70;99.90;;;;;;4955214;28;20075;-73
2024/01/04 12:29:31;;;;;;;4.93;0.90;;;6.60;99.90;;;;;;4953822;29;20061;-73
2024/01/04 12:31:57;;;;;;;3.65;1.13;;;6.50;99.90;;;;;;4955130;29;20122;-73
2024/01/04 12:34:23;;;;;;;5.50;0.90;;;6.50;99.90;;;;;;4953708;29;20043;-74
2024/01/04 12:36:48;;;;;;;2.80;0.90;;;6.60;99.90;;;;;;4953800;29;20035;-74
2024/01/04 12:39:14;;;;;;;5.75;1.40;;;6.60;99.90;;;;;;4955187;28;20043;-75
2024/01/04 12:41:44;;;;;;;2.35;0.77;;;6.50;99.90;;;;;;4955130;28;20039;-73
2024/01/04 12:44:11;;;;;;;3.28;0.77;;;6.50;99.90;;;;;;4957727;29;20126;-73
2024/01/04 12:46:37;;;;;;;5.28;1.00;;;6.50;99.90;;;;;;4958568;28;20050;-72
2024/01/04 12:49:11;;;;;;;4.78;1.38;;;6.50;99.90;;;;;;4957654;29;20047;-76
2024/01/04 12:51:41;;;;;;;2.78;0.73;;;6.50;99.90;;;;;;4957294;29;20043;-72
2024/01/04 12:54:07;;;;;;;7.28;1.40;;;6.50;99.90;;;;;;4958911;28;20043;-73
2024/01/04 12:56:36;;;;;;;3.05;0.70;;;6.60;99.90;;;;;;4957288;29;20403;-74
2024/01/04 12:59:04;;;;;;;3.95;1.00;;;6.60;99.90;;;;;;4957320;29;20075;-73
2024/01/04 13:01:34;;;;;;;5.32;1.10;;;6.50;99.90;;;;;;4958273;28;20435;-75
2024/01/04 13:04:00;;;;;;;5.80;1.10;;;6.50;99.90;;;;;;4957120;29;20078;-74
2024/01/04 13:06:26;;;;;;;4.95;1.15;;;6.50;99.90;;;;;;4957120;29;20147;-76
2024/01/04 13:08:52;;;;;;;4.10;1.00;;;6.50;99.90;;;;;;4957447;29;20392;-74
2024/01/04 13:11:18;;;;;;;6.90;1.30;;;6.60;99.90;;;;;;4958837;29;20043;-75
2024/01/04 13:13:44;;;;;;;4.95;1.02;;;6.70;99.90;;;;;;4957211;29;20062;-76
2024/01/04 13:16:10;;;;;;;11.23;1.55;;;6.80;99.90;;;;;;4959615;28;20045;-74
2024/01/04 13:18:36;;;;;;;3.78;1.17;;;6.90;99.90;;;;;;4957242;29;20051;-75
2024/01/04 13:21:02;;;;;;;4.57;1.00;;;7.00;99.90;;;;;;4958613;28;20046;-76
2024/01/04 13:23:31;;;;;;;5.93;0.85;;;6.90;99.90;;;;;;4958407;28;20148;-74
2024/01/04 13:25:57;;;;;;;2.75;0.90;;;6.90;99.90;;;;;;4956926;29;20079;-76
2024/01/04 13:28:23;;;;;;;9.63;1.80;;;6.80;99.90;;;;;;4957138;29;20086;-73
2024/01/04 13:30:50;;;;;;;3.83;1.00;;;6.70;99.90;;;;;;4958288;28;20051;-76
2024/01/04 13:33:15;;;;;;;6.53;1.05;;;6.60;99.90;;;;;;4956943;29;20127;-73
2024/01/04 13:35:41;;;;;;;7.18;1.20;;;6.60;99.90;;;;;;4956808;29;20114;-73
2024/01/04 13:38:07;;;;;;;3.65;0.90;;;6.50;99.90;;;;;;4956823;29;20043;-76
2024/01/04 13:40:34;;;;;;;6.03;0.93;;;6.50;99.90;;;;;;4956901;29;20078;-75
2024/01/04 13:43:00;;;;;;;2.92;0.65;;;6.50;99.90;;;;;;4958200;28;20101;-76
2024/01/04 13:45:25;;;;;;;5.88;1.45;;;6.40;99.90;;;;;;4956623;29;20047;-73
2024/01/04 13:47:51;;;;;;;3.00;1.00;;;6.40;99.90;;;;;;4956854;29;20050;-73
2024/01/04 13:50:17;;;;;;;5.68;1.00;;;6.40;99.90;;;;;;4956555;29;20051;-76
2024/01/04 13:52:42;;;;;;;4.38;1.23;;;6.40;99.90;;;;;;4956271;29;20047;-74
2024/01/04 13:55:08;;;;;;;4.15;0.80;;;6.40;99.90;;;;;;4956989;28;20035;-76
2024/01/04 13:57:35;;;;;;;5.15;1.00;;;6.30;99.90;;;;;;4956695;29;20059;-73
2024/01/04 14:00:02;;;;;;;3.35;0.75;;;6.30;99.90;;;;;;4940225;29;20479;-74
2024/01/04 14:02:28;;;;;;;3.05;0.80;;;6.20;99.90;;;;;;4956211;28;20615;-76
2024/01/04 14:04:53;;;;;;;5.15;1.33;;;6.30;99.90;;;;;;4955070;29;20122;-76
2024/01/04 14:07:19;;;;;;;3.40;1.00;;;6.20;99.90;;;;;;4954968;29;20043;-73
2024/01/04 14:09:45;;;;;;;4.70;0.90;;;6.30;99.90;;;;;;4956290;29;20049;-74
2024/01/04 14:12:12;;;;;;;6.22;1.58;;;6.30;99.90;;;;;;4955881;29;20395;-75
2024/01/04 14:14:37;;;;;;;3.67;1.27;;;6.30;99.90;;;;;;4956492;28;20053;-73
2024/01/04 14:17:03;;;;;;;9.45;1.83;;;6.20;99.90;;;;;;4956198;28;20075;-72
2024/01/04 14:19:29;;;;;;;6.85;1.15;;;6.20;99.90;;;;;;4956553;28;20050;-75
2024/01/04 14:21:54;;;;;;;4.00;0.90;;;6.20;99.90;;;;;;4955256;29;20035;-74
2024/01/04 14:24:21;;;;;;;10.38;1.67;;;6.20;99.90;;;;;;4956274;29;20396;-76
2024/01/04 14:26:48;;;;;;;6.70;1.30;;;6.20;99.90;;;;;;4955363;29;20055;-74
2024/01/04 14:29:14;;;;;;;6.18;1.63;;;6.20;99.90;;;;;;4956033;28;20103;-73
2024/01/04 14:31:39;;;;;;;3.72;1.10;;;6.20;99.90;;;;;;4954932;29;20047;-77
2024/01/04 14:34:05;;;;;;;3.58;1.15;;;6.20;99.90;;;;;;4954742;29;20079;-75
2024/01/04 14:36:31;;;;;;;5.07;1.48;;;6.20;99.90;;;;;;4954745;29;20039;-73
2024/01/04 14:38:56;;;;;;;4.20;1.45;;;6.20;99.90;;;;;;4955757;28;20066;-74
2024/01/04 14:41:22;;;;;;;4.80;1.50;;;6.10;99.90;;;;;;4956871;28;20103;-74
2024/01/04 14:43:47;;;;;;;4.53;1.58;;;6.10;99.90;;;;;;4956968;29;20054;-73
2024/01/04 14:46:25;;;;;;;3.22;1.00;;;6.10;99.90;;;;;;4954626;29;20058;-75
2024/01/04 14:48:51;;;;;;;6.82;1.50;;;6.10;99.90;;;;;;4955572;29;20066;-76
2024/01/04 14:51:23;;;;;;;7.97;1.30;;;6.00;99.90;;;;;;4955892;29;20038;-73
2024/01/04 14:53:49;;;;;;;4.93;1.25;;;6.00;99.90;;;;;;4955564;28;20488;-76
2024/01/04 14:56:17;;;;;;;4.43;1.25;;;6.00;99.90;;;;;;4954382;29;20105;-75
2024/01/04 14:58:46;;;;;;;8.00;1.92;;;6.00;99.90;;;;;;4955496;28;20042;-76
2024/01/04 15:01:15;;;;;;;5.60;1.50;;;6.00;99.90;;;;;;4917536;29;1081235;-75
2024/01/04 15:03:42;;;;;;;4.28;1.50;;;5.90;99.90;;;;;;4956215;28;20047;-72
2024/01/04 15:06:08;;;;;;;8.23;1.45;;;5.90;99.90;;;;;;4954792;28;20054;-75
2024/01/04 15:08:34;;;;;;;2.72;1.08;;;5.90;99.90;;;;;;4939189;29;20051;-74
2024/01/04 15:11:00;;;;;;;5.97;1.63;;;5.90;99.90;;;;;;4954693;29;20510;-75
2024/01/04 15:13:25;;;;;;;6.53;1.45;;;5.80;99.90;;;;;;4955009;29;20083;-76
2024/01/04 15:15:52;;;;;;;4.45;1.30;;;5.80;99.90;;;;;;4954812;29;20043;-75
2024/01/04 15:18:18;;;;;;;4.95;1.30;;;5.80;99.90;;;;;;4955095;29;20043;-74
2024/01/04 15:20:45;;;;;;;5.40;1.70;;;5.80;99.90;;;;;;4954724;29;20130;-74
2024/01/04 15:23:12;;;;;;;8.90;1.65;;;5.80;99.90;;;;;;4956011;28;20047;-74
2024/01/04 15:25:39;;;;;;;3.35;1.33;;;5.80;99.90;;;;;;4954540;29;20122;-74
2024/01/04 15:28:09;;;;;;;6.40;1.23;;;5.70;99.90;;;;;;4954597;29;20047;-74
2024/01/04 15:30:35;;;;;;;4.82;1.38;;;5.80;99.90;;;;;;4955894;28;20122;-73
2024/01/04 15:33:01;;;;;;;9.75;1.48;;;5.70;99.90;;;;;;4954389;29;20127;-74
2024/01/04 15:35:28;;;;;;;6.30;1.10;;;5.70;99.90;;;;;;4955594;28;20066;-74
2024/01/04 15:37:54;;;;;;;5.30;1.50;;;5.70;99.90;;;;;;4954662;29;20089;-75
2024/01/04 15:40:20;;;;;;;2.25;0.90;;;5.70;99.90;;;;;;4954195;29;20066;-74
2024/01/04 15:42:45;;;;;;;5.82;1.08;;;5.70;99.90;;;;;;4954289;29;20125;-75
2024/01/04 15:45:11;;;;;;;3.92;1.05;;;5.70;99.90;;;;;;4955759;29;20047;-74
2024/01/04 15:47:36;;;;;;;8.07;1.10;;;5.60;99.90;;;;;;4958528;29;20074;-75
2024/01/04 15:50:03;;;;;;;4.38;1.85;;;5.60;99.90;;;;;;4957180;29;20487;-72
2024/01/04 15:52:29;;;;;;;5.13;0.98;;;5.60;99.90;;;;;;4954132;29;20106;-73
2024/01/04 15:54:55;;;;;;;3.63;1.30;;;5.60;99.90;;;;;;4955715;29;20070;-74
2024/01/04 15:57:20;;;;;;;6.55;1.25;;;5.60;99.90;;;;;;4953870;29;20094;-74
2024/01/04 15:59:46;;;;;;;4.88;1.27;;;5.60;99.90;;;;;;4955263;29;20071;-74
2024/01/04 16:02:12;;;;;;;1.75;0.95;;;5.60;99.90;;;;;;4953667;29;20043;-74
2024/01/04 16:04:37;;;;;;;10.05;1.05;;;5.50;99.90;;;;;;4953841;29;20046;-74
2024/01/04 16:07:08;;;;;;;4.13;1.08;;;5.50;99.90;;;;;;4955040;29;20314;-74
2024/01/04 16:09:34;;;;;;;4.28;0.95;;;5.50;99.90;;;;;;4954998;28;20047;-74
2024/01/04 16:11:59;;;;;;;4.93;1.20;;;5.50;99.90;;;;;;4955236;29;20035;-74
2024/01/04 16:14:25;;;;;;;4.32;1.30;;;5.50;99.90;;;;;;4954954;29;20051;-76
2024/01/04 16:16:50;;;;;;;5.70;1.30;;;5.50;99.90;;;;;;4955528;28;20043;-72
2024/01/04 16:19:16;;;;;;;3.15;1.20;;;5.40;99.90;;;;;;4960120;29;20126;-75
2024/01/04 16:21:42;;;;;;;3.45;1.17;;;5.40;99.90;;;;;;4960420;29;20055;-74
2024/01/04 16:24:08;;;;;;;4.25;1.60;;;5.40;99.90;;;;;;4961662;28;20497;-75
2024/01/04 16:26:34;;;;;;;3.22;1.10;;;5.40;99.90;;;;;;4944077;28;20075;-74
2024/01/04 16:28:59;;;;;;;3.47;1.13;;;5.40;99.90;;;;;;4960059;28;20047;-72
2024/01/04 16:31:25;;;;;;;2.85;1.30;;;5.40;99.90;;;;;;4959980;29;20086;-73
2024/01/04 16:33:51;;;;;;;3.95;1.50;;;5.40;99.90;;;;;;4959877;29;20174;-73
2024/01/04 16:36:18;;;;;;;3.78;1.35;;;5.40;99.90;;;;;;4959999;29;20046;-72
2024/01/04 16:38:44;;;;;;;3.97;1.45;;;5.40;99.90;;;;;;4960063;29;20055;-74
2024/01/04 16:41:11;;;;;;;3.35;1.35;;;5.30;99.90;;;;;;4959902;28;20555;-75
2024/01/04 16:43:40;;;;;;;8.63;1.80;;;5.40;99.90;;;;;;4961261;28;20039;-74
2024/01/04 16:46:06;;;;;;;7.00;1.67;;;5.30;99.90;;;;;;4961495;28;20399;-76
2024/01/04 16:48:31;;;;;;;7.03;1.73;;;5.30;99.90;;;;;;4961394;28;20050;-74
2024/01/04 16:50:57;;;;;;;4.03;1.60;;;5.30;99.90;;;;;;4959606;29;20038;-75
2024/01/04 16:53:23;;;;;;;9.07;1.95;;;5.30;99.90;;;;;;4959764;29;20054;-73
2024/01/04 16:55:49;;;;;;;6.22;1.60;;;5.30;99.90;;;;;;4949465;29;20031;-73